createdAt,value
2022-12-26T00:02:03.858Z,99646.39
2022-12-26T00:05:05.906Z,99637.83
2022-12-26T00:08:08.220Z,99632.70
2022-12-26T00:11:10.392Z,99628.74
2022-12-26T00:14:14.942Z,99634.88
2022-12-26T00:17:16.566Z,99631.62
2022-12-26T00:20:18.286Z,99627.34
2022-12-26T00:23:20.056Z,99626.80
2022-12-26T00:26:23.140Z,99619.27
2022-12-26T00:29:24.900Z,99613.27
2022-12-26T00:32:26.540Z,99612.25
2022-12-26T00:35:28.240Z,99610.70
2022-12-26T00:38:30.056Z,99600.91
2022-12-26T00:41:31.854Z,99593.89
2022-12-26T00:44:33.546Z,99583.28
2022-12-26T00:47:35.098Z,99583.94
2022-12-26T00:50:36.889Z,99574.85
2022-12-26T00:53:38.564Z,99576.21
2022-12-26T00:56:40.423Z,99579.98
2022-12-26T00:59:41.932Z,99577.27
2022-12-26T01:02:43.668Z,99570.61
2022-12-26T01:05:50.466Z,99574.20
2022-12-26T01:08:53.474Z,99583.95
2022-12-26T01:11:55.097Z,99586.17
2022-12-26T01:15:00.036Z,99578.17
2022-12-26T01:18:05.540Z,99570.89
2022-12-26T01:21:09.844Z,99571.98
2022-12-26T01:24:11.754Z,99560.11
2022-12-26T01:27:13.531Z,99555.89
2022-12-26T01:30:15.052Z,99547.71
2022-12-26T01:33:16.697Z,99555.44
2022-12-26T01:36:18.778Z,99560.25
2022-12-26T01:39:21.179Z,99562.33
2022-12-26T01:42:25.059Z,99564.09
2022-12-26T01:45:31.509Z,99565.33
2022-12-26T01:48:35.683Z,99565.68
2022-12-26T01:51:40.386Z,99556.29
2022-12-26T01:54:44.503Z,99544.33
2022-12-26T01:57:54.964Z,99535.74
2022-12-26T02:00:56.692Z,99534.80
2022-12-26T02:04:20.479Z,99536.10
2022-12-26T02:07:23.344Z,99544.37
2022-12-26T02:10:28.010Z,99550.16
2022-12-26T02:13:30.863Z,99538.52
2022-12-26T02:16:33.341Z,99529.46
2022-12-26T02:19:50.136Z,99520.55
2022-12-26T02:23:10.616Z,99520.83
2022-12-26T02:26:27.061Z,99510.19
2022-12-26T02:29:57.021Z,99507.07
2022-12-26T02:33:14.322Z,99510.46
2022-12-26T02:36:43.446Z,99508.23
2022-12-26T02:40:09.396Z,99503.30
2022-12-26T02:43:27.123Z,99502.83
2022-12-26T02:46:52.122Z,99501.98
2022-12-26T02:50:21.921Z,99491.18
2022-12-26T02:53:54.392Z,99468.77
2022-12-26T02:57:23.171Z,99450.73
2022-12-26T03:00:43.416Z,99432.28
2022-12-26T03:04:04.860Z,99404.98
2022-12-26T03:07:31.915Z,99418.55
2022-12-26T03:10:54.027Z,99408.30
2022-12-26T03:13:56.273Z,99401.61
2022-12-26T03:17:21.817Z,99405.52
2022-12-26T03:20:23.756Z,99413.17
2022-12-26T03:23:26.081Z,99412.30
2022-12-26T03:26:41.242Z,99408.17
2022-12-26T03:30:01.517Z,99418.44
2022-12-26T03:33:03.485Z,99425.11
2022-12-26T03:36:06.483Z,99419.17
2022-12-26T03:39:13.923Z,99409.34
2022-12-26T03:43:03.875Z,99402.08
2022-12-26T03:46:36.854Z,99396.86
2022-12-26T03:50:04.157Z,99393.33
2022-12-26T03:53:32.156Z,99395.93
2022-12-26T03:56:57.191Z,99404.20
2022-12-26T04:00:23.022Z,99402.39
2022-12-26T04:03:44.593Z,99404.84
2022-12-26T04:07:22.538Z,99403.73
2022-12-26T04:10:50.854Z,99394.92
2022-12-26T04:14:32.456Z,99385.78
2022-12-26T04:18:09.552Z,99379.70
2022-12-26T04:21:36.811Z,99368.80
2022-12-26T04:25:04.394Z,99372.22
2022-12-26T04:28:24.889Z,99366.73
2022-12-26T04:32:13.211Z,99367.07
2022-12-26T04:36:02.116Z,99352.11
2022-12-26T04:39:25.075Z,99351.83
2022-12-26T04:42:46.735Z,99347.79
2022-12-26T04:45:49.093Z,99335.77
2022-12-26T04:49:11.186Z,99334.17
2022-12-26T04:52:14.790Z,99334.83
2022-12-26T04:55:17.800Z,99336.34
2022-12-26T04:58:19.587Z,99334.89
2022-12-26T05:01:40.374Z,99337.31
2022-12-26T05:05:01.260Z,99336.91
2022-12-26T05:08:22.099Z,99334.96
2022-12-26T05:11:24.600Z,99338.88
2022-12-26T05:14:26.490Z,99333.90
2022-12-26T05:17:46.990Z,99332.10
2022-12-26T05:21:07.220Z,99326.55
2022-12-26T05:24:29.045Z,99328.80
2022-12-26T05:27:57.788Z,99336.80
2022-12-26T05:31:00.003Z,99335.77
2022-12-26T05:34:08.004Z,99334.19
2022-12-26T05:37:09.793Z,99327.81
2022-12-26T05:40:11.657Z,99329.61
2022-12-26T05:43:13.519Z,99333.83
2022-12-26T05:46:15.211Z,99337.13
2022-12-26T05:49:17.361Z,99339.23
2022-12-26T05:52:19.235Z,99345.31
2022-12-26T05:55:20.891Z,99345.27
2022-12-26T05:58:22.698Z,99347.31
2022-12-26T06:01:24.620Z,99355.54
2022-12-26T06:04:27.210Z,99356.75
2022-12-26T06:07:28.868Z,99352.51
2022-12-26T06:10:30.598Z,99349.77
2022-12-26T06:13:32.520Z,99352.33
2022-12-26T06:16:34.155Z,99361.56
2022-12-26T06:19:38.902Z,99364.70
2022-12-26T06:22:43.661Z,99363.84
2022-12-26T06:25:45.333Z,99373.78
2022-12-26T06:28:47.750Z,99372.14
2022-12-26T06:31:49.569Z,99372.48
2022-12-26T06:34:51.218Z,99370.35
2022-12-26T06:37:53.157Z,99368.69
2022-12-26T06:40:54.784Z,99368.75
2022-12-26T06:43:56.421Z,99367.55
2022-12-26T06:46:58.247Z,99365.82
2022-12-26T06:49:59.908Z,99370.21
2022-12-26T06:53:01.575Z,99373.04
2022-12-26T06:56:10.522Z,99380.99
2022-12-26T06:59:12.309Z,99387.92
2022-12-26T07:02:14.024Z,99392.30
2022-12-26T07:05:15.773Z,99387.70
2022-12-26T07:08:17.418Z,99392.94
2022-12-26T07:11:22.433Z,99398.84
2022-12-26T07:14:24.227Z,99403.44
2022-12-26T07:17:25.872Z,99406.34
2022-12-26T07:20:27.573Z,99416.08
2022-12-26T07:23:31.050Z,99414.31
2022-12-26T07:26:32.800Z,99412.64
2022-12-26T07:29:34.523Z,99402.48
2022-12-26T07:32:36.212Z,99398.23
2022-12-26T07:35:37.865Z,99399.27
2022-12-26T07:38:39.675Z,99392.63
2022-12-26T07:41:59.785Z,99390.12
2022-12-26T07:45:01.444Z,99384.23
2022-12-26T07:48:03.124Z,99383.45
2022-12-26T07:51:05.352Z,99390.95
2022-12-26T07:54:11.157Z,99395.91
2022-12-26T07:57:46.719Z,99399.19
2022-12-26T08:00:35.203Z,99401.23
2022-12-26T08:03:36.912Z,99401.61
2022-12-26T08:06:39.163Z,99401.00
2022-12-26T08:09:43.196Z,99413.98
2022-12-26T08:12:45.040Z,99426.17
2022-12-26T08:15:46.845Z,99429.02
2022-12-26T08:18:48.644Z,99432.82
2022-12-26T08:21:50.468Z,99422.56
2022-12-26T08:24:52.148Z,99413.64
2022-12-26T08:27:53.860Z,99392.58
2022-12-26T08:30:55.694Z,99397.98
2022-12-26T08:33:57.869Z,99398.85
2022-12-26T08:36:59.617Z,99407.02
2022-12-26T08:40:01.333Z,99411.11
2022-12-26T08:43:21.990Z,99409.23
2022-12-26T08:46:24.992Z,99402.96
2022-12-26T08:49:26.823Z,99404.48
2022-12-26T08:52:28.671Z,99403.52
2022-12-26T08:55:30.468Z,99410.62
2022-12-26T08:58:32.130Z,99408.27
2022-12-26T09:01:34.089Z,99409.63
2022-12-26T09:04:35.999Z,99406.98
2022-12-26T09:07:37.563Z,99406.63
2022-12-26T09:10:39.831Z,99417.05
2022-12-26T09:13:43.020Z,99424.68
2022-12-26T09:16:50.387Z,99427.89
2022-12-26T09:19:53.631Z,99430.18
2022-12-26T09:22:55.587Z,99429.31
2022-12-26T09:26:07.988Z,99428.95
2022-12-26T09:29:11.773Z,99416.40
2022-12-26T09:32:13.483Z,99400.89
2022-12-26T09:35:15.131Z,99392.50
2022-12-26T09:38:16.895Z,99395.41
2022-12-26T09:41:27.164Z,99396.09
2022-12-26T09:44:59.744Z,99392.84
2022-12-26T09:48:16.025Z,99398.02
2022-12-26T09:51:17.779Z,99401.59
2022-12-26T09:54:23.083Z,99397.16
2022-12-26T09:57:46.727Z,99388.28
2022-12-26T10:01:06.484Z,99395.96
2022-12-26T10:04:16.243Z,99396.33
2022-12-26T10:07:39.446Z,99393.27
2022-12-26T10:10:45.916Z,99384.13
2022-12-26T10:13:56.793Z,99379.67
2022-12-26T10:17:19.087Z,99388.16
2022-12-26T10:20:30.178Z,99389.60
2022-12-26T10:23:39.941Z,99386.98
2022-12-26T10:26:46.144Z,99379.86
2022-12-26T10:29:54.312Z,99379.55
2022-12-26T10:33:01.116Z,99377.06
2022-12-26T10:36:03.340Z,99369.59
2022-12-26T10:39:11.274Z,99366.27
2022-12-26T10:42:37.098Z,99362.46
2022-12-26T10:45:45.451Z,99355.39
2022-12-26T10:48:48.496Z,99356.00
2022-12-26T10:51:51.779Z,99353.30
2022-12-26T10:55:27.977Z,99362.39
2022-12-26T10:58:24.210Z,99361.65
2022-12-26T11:01:35.130Z,99356.61
2022-12-26T11:05:11.259Z,99349.52
2022-12-26T11:08:06.059Z,99347.14
2022-12-26T11:11:12.474Z,99349.71
2022-12-26T11:14:33.723Z,99351.25
2022-12-26T11:17:42.010Z,99341.97
2022-12-26T11:20:44.572Z,99332.39
2022-12-26T11:23:47.982Z,99316.78
2022-12-26T11:26:49.785Z,99308.94
2022-12-26T11:29:51.417Z,99317.30
2022-12-26T11:33:18.721Z,99326.72
2022-12-26T11:36:26.114Z,99325.66
2022-12-26T11:39:32.727Z,99322.54
2022-12-26T11:42:34.564Z,99314.27
2022-12-26T11:45:42.845Z,99319.66
2022-12-26T11:48:49.280Z,99324.59
2022-12-26T11:51:58.781Z,99326.17
2022-12-26T11:55:01.902Z,99320.69
2022-12-26T11:58:07.002Z,99320.30
2022-12-26T12:01:13.173Z,99314.08
2022-12-26T12:04:15.219Z,99310.46
2022-12-26T12:07:43.270Z,99306.93
2022-12-26T12:11:04.199Z,99303.70
2022-12-26T12:14:19.747Z,99289.71
2022-12-26T12:17:31.706Z,99283.61
2022-12-26T12:20:41.383Z,99289.58
2022-12-26T12:24:14.325Z,99288.33
2022-12-26T12:27:34.504Z,99293.95
2022-12-26T12:30:47.472Z,99292.43
2022-12-26T12:33:53.707Z,99288.48
2022-12-26T12:37:30.705Z,99277.77
2022-12-26T12:40:42.471Z,99271.52
2022-12-26T12:44:08.328Z,99275.52
2022-12-26T12:47:19.006Z,99266.04
2022-12-26T12:50:36.523Z,99259.90
2022-12-26T12:53:56.678Z,99266.30
2022-12-26T12:57:23.510Z,99269.27
2022-12-26T13:00:28.936Z,99265.41
2022-12-26T13:03:36.606Z,99266.88
2022-12-26T13:06:45.969Z,99275.73
2022-12-26T13:10:13.739Z,99273.48
2022-12-26T13:13:30.534Z,99268.89
2022-12-26T13:16:43.534Z,99266.10
2022-12-26T13:20:02.670Z,99261.33
2022-12-26T13:23:29.173Z,99261.30
2022-12-26T13:26:47.612Z,99264.05
2022-12-26T13:29:50.432Z,99260.53
2022-12-26T13:32:56.218Z,99264.83
2022-12-26T13:36:01.269Z,99263.30
2022-12-26T13:39:12.165Z,99271.70
2022-12-26T13:42:32.728Z,99279.41
2022-12-26T13:45:37.146Z,99273.14
2022-12-26T13:48:39.039Z,99283.27
2022-12-26T13:51:43.898Z,99291.73
2022-12-26T13:54:48.637Z,99295.95
2022-12-26T13:58:13.973Z,99298.37
2022-12-26T14:02:02.875Z,99297.37
2022-12-26T14:05:35.354Z,99297.17
2022-12-26T14:08:36.942Z,99295.77
2022-12-26T14:12:04.382Z,99288.65
2022-12-26T14:15:36.987Z,99289.66
2022-12-26T14:18:42.460Z,99294.70
2022-12-26T14:22:06.136Z,99293.17
2022-12-26T14:25:17.053Z,99298.83
2022-12-26T14:28:31.450Z,99291.89
2022-12-26T14:31:45.529Z,99283.98
2022-12-26T14:35:25.895Z,99289.82
2022-12-26T14:38:58.944Z,99292.50
2022-12-26T14:42:25.600Z,99297.02
2022-12-26T14:45:30.278Z,99298.36
2022-12-26T14:48:31.909Z,99296.88
2022-12-26T14:51:36.696Z,99294.08
2022-12-26T14:54:39.840Z,99290.42
2022-12-26T14:57:46.344Z,99292.22
2022-12-26T15:00:48.386Z,99292.34
2022-12-26T15:04:21.139Z,99290.72
2022-12-26T15:07:53.239Z,99292.54
2022-12-26T15:11:19.725Z,99292.30
2022-12-26T15:14:40.215Z,99296.61
2022-12-26T15:17:48.477Z,99303.59
2022-12-26T15:21:12.418Z,99304.85
2022-12-26T15:25:16.848Z,99303.74
2022-12-26T15:28:15.601Z,99309.77
2022-12-26T15:31:23.876Z,99304.69
2022-12-26T15:35:11.229Z,99298.09
2022-12-26T15:38:20.996Z,99296.83
2022-12-26T15:41:48.641Z,99295.92
2022-12-26T15:45:16.682Z,99291.00
2022-12-26T15:48:27.273Z,99295.02
2022-12-26T15:51:55.565Z,99293.61
2022-12-26T15:55:04.108Z,99292.10
2022-12-26T15:58:23.074Z,99295.44
2022-12-26T16:01:45.717Z,99286.78
2022-12-26T16:04:50.078Z,99283.70
2022-12-26T16:08:04.353Z,99283.11
2022-12-26T16:11:25.830Z,99276.93
2022-12-26T16:14:36.569Z,99285.61
2022-12-26T16:17:39.692Z,99289.17
2022-12-26T16:21:01.087Z,99283.88
2022-12-26T16:24:02.912Z,99284.41
2022-12-26T16:27:07.519Z,99281.25
2022-12-26T16:30:20.149Z,99280.13
2022-12-26T16:33:21.897Z,99273.98
2022-12-26T16:36:28.396Z,99267.52
2022-12-26T16:39:30.299Z,99271.36
2022-12-26T16:42:32.665Z,99267.82
2022-12-26T16:45:37.324Z,99268.65
2022-12-26T16:48:40.294Z,99262.88
2022-12-26T16:51:47.477Z,99260.52
2022-12-26T16:54:49.207Z,99264.30
2022-12-26T16:57:53.143Z,99265.02
2022-12-26T17:01:00.664Z,99262.69
2022-12-26T17:04:05.203Z,99265.98
2022-12-26T17:07:08.498Z,99271.00
2022-12-26T17:10:19.731Z,99273.24
2022-12-26T17:13:25.181Z,99280.09
2022-12-26T17:16:29.381Z,99278.03
2022-12-26T17:19:33.316Z,99279.94
2022-12-26T17:22:36.776Z,99283.83
2022-12-26T17:25:38.409Z,99292.92
2022-12-26T17:28:39.975Z,99297.78
2022-12-26T17:31:44.060Z,99299.80
2022-12-26T17:34:45.724Z,99305.61
2022-12-26T17:37:47.938Z,99314.89
2022-12-26T17:40:53.564Z,99317.13
2022-12-26T17:43:57.739Z,99323.40
2022-12-26T17:47:02.739Z,99330.73
2022-12-26T17:50:04.785Z,99340.28
2022-12-26T17:53:27.195Z,99331.50
2022-12-26T17:56:28.833Z,99313.44
2022-12-26T17:59:30.382Z,99313.23
2022-12-26T18:02:32.076Z,99301.46
2022-12-26T18:05:35.715Z,99284.26
2022-12-26T18:08:42.656Z,99253.05
2022-12-26T18:11:44.273Z,99236.40
2022-12-26T18:14:46.119Z,99242.67
2022-12-26T18:17:48.387Z,99225.73
2022-12-26T18:20:50.495Z,99203.77
2022-12-26T18:23:52.665Z,99200.45
2022-12-26T18:26:54.584Z,99217.59
2022-12-26T18:29:56.928Z,99202.13
2022-12-26T18:32:58.659Z,99199.98
2022-12-26T18:36:05.826Z,99215.08
2022-12-26T18:39:14.906Z,99225.04
2022-12-26T18:42:17.788Z,99214.77
2022-12-26T18:45:19.403Z,99236.23
2022-12-26T18:48:21.093Z,99237.05
2022-12-26T18:51:23.657Z,99253.55
2022-12-26T18:54:25.456Z,99269.29
2022-12-26T18:57:27.097Z,99294.52
2022-12-26T19:00:29.278Z,99303.77
2022-12-26T19:03:31.171Z,99298.36
2022-12-26T19:06:35.312Z,99291.25
2022-12-26T19:09:37.325Z,99290.27
2022-12-26T19:12:39.659Z,99283.90
2022-12-26T19:15:46.772Z,99289.39
2022-12-26T19:18:49.072Z,99283.33
2022-12-26T19:21:50.759Z,99273.27
2022-12-26T19:24:53.578Z,99270.86
2022-12-26T19:27:55.858Z,99283.23
2022-12-26T19:30:57.596Z,99280.84
2022-12-26T19:33:59.325Z,99292.48
2022-12-26T19:37:01.091Z,99295.86
2022-12-26T19:40:04.373Z,99295.18
2022-12-26T19:43:06.012Z,99301.08
2022-12-26T19:46:12.781Z,99304.84
2022-12-26T19:49:14.795Z,99318.75
2022-12-26T19:52:16.689Z,99328.94
2022-12-26T19:55:18.712Z,99329.16
2022-12-26T19:58:20.467Z,99322.73
2022-12-26T20:01:30.457Z,99325.14
2022-12-26T20:04:32.222Z,99335.34
2022-12-26T20:07:34.022Z,99336.33
2022-12-26T20:10:35.824Z,99335.70
2022-12-26T20:13:37.706Z,99331.11
2022-12-26T20:17:04.977Z,99331.27
2022-12-26T20:20:01.415Z,99333.29
2022-12-26T20:23:03.144Z,99333.75
2022-12-26T20:26:07.901Z,99334.75
2022-12-26T20:29:09.781Z,99338.42
2022-12-26T20:32:11.705Z,99344.67
2022-12-26T20:35:14.185Z,99344.37
2022-12-26T20:38:15.831Z,99343.81
2022-12-26T20:41:17.803Z,99344.05
2022-12-26T20:44:19.750Z,99341.20
2022-12-26T20:47:21.402Z,99339.22
2022-12-26T20:50:23.450Z,99336.62
2022-12-26T20:53:25.562Z,99330.59
2022-12-26T20:56:27.437Z,99328.02
2022-12-26T20:59:29.504Z,99333.98
2022-12-26T21:02:31.221Z,99346.22
2022-12-26T21:05:33.174Z,99355.16
2022-12-26T21:08:35.992Z,99357.55
2022-12-26T21:11:39.383Z,99360.25
2022-12-26T21:14:42.243Z,99356.79
2022-12-26T21:17:44.045Z,99359.35
2022-12-26T21:20:45.783Z,99370.34
2022-12-26T21:23:48.293Z,99377.99
2022-12-26T21:26:50.072Z,99372.27
2022-12-26T21:29:51.781Z,99361.93
2022-12-26T21:32:53.744Z,99361.95
2022-12-26T21:35:55.834Z,99366.41
2022-12-26T21:38:57.887Z,99371.95
2022-12-26T21:42:00.485Z,99379.48
2022-12-26T21:45:02.273Z,99374.27
2022-12-26T21:48:04.050Z,99383.71
2022-12-26T21:51:09.468Z,99380.90
2022-12-26T21:54:29.889Z,99390.39
2022-12-26T21:57:35.283Z,99392.61
2022-12-26T22:00:37.235Z,99390.20
2022-12-26T22:03:57.641Z,99386.05
2022-12-26T22:06:59.245Z,99386.63
2022-12-26T22:10:01.158Z,99387.53
2022-12-26T22:13:03.005Z,99387.45
2022-12-26T22:16:07.227Z,99387.02
2022-12-26T22:19:09.513Z,99385.98
2022-12-26T22:22:11.200Z,99383.35
2022-12-26T22:25:12.980Z,99380.99
2022-12-26T22:28:16.526Z,99378.59
2022-12-26T22:31:26.779Z,99376.95
2022-12-26T22:34:28.627Z,99381.25
2022-12-26T22:37:30.148Z,99377.71
2022-12-26T22:40:32.037Z,99370.87
2022-12-26T22:43:34.001Z,99367.11
2022-12-26T22:46:36.910Z,99367.16
2022-12-26T22:49:38.725Z,99380.41
2022-12-26T22:52:40.284Z,99385.16
2022-12-26T22:55:49.773Z,99374.41
2022-12-26T22:58:55.935Z,99369.81
2022-12-26T23:01:57.628Z,99373.25
2022-12-26T23:04:59.638Z,99365.88
2022-12-26T23:08:01.656Z,99367.64
2022-12-26T23:11:03.593Z,99371.69
2022-12-26T23:14:07.739Z,99367.68
2022-12-26T23:17:33.652Z,99368.44
2022-12-26T23:20:56.054Z,99370.89
2022-12-26T23:23:57.708Z,99366.38
2022-12-26T23:27:21.504Z,99360.37
2022-12-26T23:30:23.763Z,99360.91
2022-12-26T23:33:25.726Z,99356.77
2022-12-26T23:36:27.381Z,99352.10
2022-12-26T23:39:29.882Z,99351.79
2022-12-26T23:42:31.800Z,99346.75
2022-12-26T23:45:33.550Z,99346.76
2022-12-26T23:48:35.398Z,99349.05
2022-12-26T23:51:37.189Z,99346.70
2022-12-26T23:54:38.829Z,99339.46
2022-12-26T23:57:40.494Z,99337.93
